Weather at Lesce-Bled Airfield

Public forecast

Using degrees Celsius for public forecast. Weather courtesy of forecast.io.

Closest aviation weather report (METAR) to Lesce-Bled Airfield

Closest report is Ljubljana Jože Pučnik Airport, 14.2 nm (26.4 km) SE.

2022/11/27 08:00 (retrieved 19 minutes ago)

LJLJ 270800Z 28002KT 9999 3000SE VCFG FEW001 M02/M02 Q1029 NOSIG

Closest aviation forecast (TAF) to Lesce-Bled Airfield

Closest forecast is Ljubljana Jože Pučnik Airport, 14.2 nm (26.4 km) SE.

2022/11/27 06:06 (retrieved 2 hours ago)

TAF LJLJ 270500Z 2706/2806 VRB02KT 8000 FEW001 BKN060 PROB30 TEMPO 2706/2709 0350 FZFG VV001 PROB40 TEMPO 2720/2806 BKN015 PROB30 TEMPO 2800/2806 0350 FZFG VV001